sensor_id;sensor_type;location;lat;lon;timestamp;P1;durP1;ratioP1;P2;durP2;ratioP2
10383;SDS011;5238;43.508;4.980;2023-02-28T00:00:54;7.63;;;5.82;;
10383;SDS011;5238;43.508;4.980;2023-02-28T00:03:21;7.45;;;5.70;;
10383;SDS011;5238;43.508;4.980;2023-02-28T00:05:50;6.63;;;5.93;;
10383;SDS011;5238;43.508;4.980;2023-02-28T00:08:19;5.07;;;4.57;;
10383;SDS011;5238;43.508;4.980;2023-02-28T00:10:48;7.65;;;5.50;;
10383;SDS011;5238;43.508;4.980;2023-02-28T00:13:15;6.50;;;5.10;;
10383;SDS011;5238;43.508;4.980;2023-02-28T00:15:42;6.82;;;5.45;;
10383;SDS011;5238;43.508;4.980;2023-02-28T00:18:10;5.88;;;5.18;;
10383;SDS011;5238;43.508;4.980;2023-02-28T00:20:38;6.88;;;5.40;;
10383;SDS011;5238;43.508;4.980;2023-02-28T00:23:07;5.63;;;5.03;;
10383;SDS011;5238;43.508;4.980;2023-02-28T00:25:34;6.93;;;5.60;;
10383;SDS011;5238;43.508;4.980;2023-02-28T00:28:01;7.72;;;6.88;;
10383;SDS011;5238;43.508;4.980;2023-02-28T00:30:28;5.68;;;4.70;;
10383;SDS011;5238;43.508;4.980;2023-02-28T00:32:55;5.88;;;5.28;;
10383;SDS011;5238;43.508;4.980;2023-02-28T00:35:24;4.85;;;4.45;;
10383;SDS011;5238;43.508;4.980;2023-02-28T00:37:53;6.93;;;6.32;;
10383;SDS011;5238;43.508;4.980;2023-02-28T00:40:24;4.95;;;4.47;;
10383;SDS011;5238;43.508;4.980;2023-02-28T00:42:52;5.63;;;4.95;;
10383;SDS011;5238;43.508;4.980;2023-02-28T00:45:19;5.80;;;5.30;;
10383;SDS011;5238;43.508;4.980;2023-02-28T00:47:46;5.22;;;4.68;;
10383;SDS011;5238;43.508;4.980;2023-02-28T00:50:15;6.22;;;5.63;;
10383;SDS011;5238;43.508;4.980;2023-02-28T00:52:42;5.22;;;4.28;;
10383;SDS011;5238;43.508;4.980;2023-02-28T00:55:09;4.97;;;4.45;;
10383;SDS011;5238;43.508;4.980;2023-02-28T00:57:38;6.43;;;5.13;;
10383;SDS011;5238;43.508;4.980;2023-02-28T01:00:05;6.35;;;5.75;;
10383;SDS011;5238;43.508;4.980;2023-02-28T01:02:34;5.53;;;5.03;;
10383;SDS011;5238;43.508;4.980;2023-02-28T01:05:03;6.13;;;5.03;;
10383;SDS011;5238;43.508;4.980;2023-02-28T01:07:31;5.95;;;5.00;;
10383;SDS011;5238;43.508;4.980;2023-02-28T01:10:01;5.20;;;4.80;;
10383;SDS011;5238;43.508;4.980;2023-02-28T01:12:28;6.75;;;4.78;;
10383;SDS011;5238;43.508;4.980;2023-02-28T01:14:56;4.93;;;4.45;;
10383;SDS011;5238;43.508;4.980;2023-02-28T01:17:23;4.75;;;4.30;;
10383;SDS011;5238;43.508;4.980;2023-02-28T01:19:52;5.13;;;4.65;;
10383;SDS011;5238;43.508;4.980;2023-02-28T01:22:20;6.95;;;5.90;;
10383;SDS011;5238;43.508;4.980;2023-02-28T01:24:47;6.50;;;4.28;;
10383;SDS011;5238;43.508;4.980;2023-02-28T01:27:14;5.28;;;4.53;;
10383;SDS011;5238;43.508;4.980;2023-02-28T01:29:41;6.47;;;4.95;;
10383;SDS011;5238;43.508;4.980;2023-02-28T01:32:14;6.22;;;5.72;;
10383;SDS011;5238;43.508;4.980;2023-02-28T01:34:41;4.47;;;4.07;;
10383;SDS011;5238;43.508;4.980;2023-02-28T01:37:08;4.93;;;4.43;;
10383;SDS011;5238;43.508;4.980;2023-02-28T01:39:35;5.50;;;4.95;;
10383;SDS011;5238;43.508;4.980;2023-02-28T01:42:02;6.00;;;5.40;;
10383;SDS011;5238;43.508;4.980;2023-02-28T01:47:27;6.68;;;5.90;;
10383;SDS011;5238;43.508;4.980;2023-02-28T01:49:56;5.22;;;4.70;;
10383;SDS011;5238;43.508;4.980;2023-02-28T01:52:24;5.43;;;4.90;;
10383;SDS011;5238;43.508;4.980;2023-02-28T01:54:54;6.20;;;5.70;;
10383;SDS011;5238;43.508;4.980;2023-02-28T01:57:23;6.47;;;4.40;;
10383;SDS011;5238;43.508;4.980;2023-02-28T01:59:56;5.43;;;4.60;;
10383;SDS011;5238;43.508;4.980;2023-02-28T02:02:26;5.10;;;4.60;;
10383;SDS011;5238;43.508;4.980;2023-02-28T02:04:56;6.88;;;5.30;;
10383;SDS011;5238;43.508;4.980;2023-02-28T02:07:26;7.63;;;5.72;;
10383;SDS011;5238;43.508;4.980;2023-02-28T02:10:01;5.22;;;4.68;;
10383;SDS011;5238;43.508;4.980;2023-02-28T02:12:33;5.70;;;5.18;;
10383;SDS011;5238;43.508;4.980;2023-02-28T02:15:18;5.00;;;4.50;;
10383;SDS011;5238;43.508;4.980;2023-02-28T02:17:51;5.10;;;4.60;;
10383;SDS011;5238;43.508;4.980;2023-02-28T02:26:54;6.13;;;5.63;;
10383;SDS011;5238;43.508;4.980;2023-02-28T02:29:56;5.50;;;5.00;;
10383;SDS011;5238;43.508;4.980;2023-02-28T02:33:12;4.88;;;4.47;;
10383;SDS011;5238;43.508;4.980;2023-02-28T02:36:06;6.68;;;4.22;;
10383;SDS011;5238;43.508;4.980;2023-02-28T02:38:39;5.30;;;4.63;;
10383;SDS011;5238;43.508;4.980;2023-02-28T02:41:14;5.75;;;4.88;;
10383;SDS011;5238;43.508;4.980;2023-02-28T02:43:46;5.85;;;5.25;;
10383;SDS011;5238;43.508;4.980;2023-02-28T02:46:18;5.45;;;5.00;;
10383;SDS011;5238;43.508;4.980;2023-02-28T02:48:49;6.25;;;5.55;;
10383;SDS011;5238;43.508;4.980;2023-02-28T02:51:20;6.20;;;5.55;;
10383;SDS011;5238;43.508;4.980;2023-02-28T02:53:49;6.10;;;5.50;;
10383;SDS011;5238;43.508;4.980;2023-02-28T02:56:21;7.45;;;5.82;;
10383;SDS011;5238;43.508;4.980;2023-02-28T02:58:55;6.55;;;5.95;;
10383;SDS011;5238;43.508;4.980;2023-02-28T03:01:27;7.95;;;5.97;;
10383;SDS011;5238;43.508;4.980;2023-02-28T03:04:01;7.05;;;6.45;;
10383;SDS011;5238;43.508;4.980;2023-02-28T03:06:37;7.53;;;6.18;;
10383;SDS011;5238;43.508;4.980;2023-02-28T03:09:05;6.18;;;5.57;;
10383;SDS011;5238;43.508;4.980;2023-02-28T03:11:32;6.90;;;6.10;;
10383;SDS011;5238;43.508;4.980;2023-02-28T03:14:04;6.63;;;6.03;;
10383;SDS011;5238;43.508;4.980;2023-02-28T03:16:46;6.85;;;6.07;;
10383;SDS011;5238;43.508;4.980;2023-02-28T03:19:34;7.93;;;7.05;;
10383;SDS011;5238;43.508;4.980;2023-02-28T03:25:05;7.85;;;6.38;;
10383;SDS011;5238;43.508;4.980;2023-02-28T03:27:36;7.10;;;5.90;;
10383;SDS011;5238;43.508;4.980;2023-02-28T03:30:09;7.53;;;6.20;;
10383;SDS011;5238;43.508;4.980;2023-02-28T03:32:42;7.25;;;6.50;;
10383;SDS011;5238;43.508;4.980;2023-02-28T03:35:18;8.55;;;7.28;;
10383;SDS011;5238;43.508;4.980;2023-02-28T03:37:53;6.85;;;6.15;;
10383;SDS011;5238;43.508;4.980;2023-02-28T03:40:28;6.65;;;6.00;;
10383;SDS011;5238;43.508;4.980;2023-02-28T03:42:59;6.88;;;6.18;;
10383;SDS011;5238;43.508;4.980;2023-02-28T03:45:30;7.20;;;6.35;;
10383;SDS011;5238;43.508;4.980;2023-02-28T03:48:06;7.15;;;6.07;;
10383;SDS011;5238;43.508;4.980;2023-02-28T03:50:44;7.38;;;6.68;;
10383;SDS011;5238;43.508;4.980;2023-02-28T03:53:15;8.32;;;7.00;;
10383;SDS011;5238;43.508;4.980;2023-02-28T03:55:47;8.10;;;6.82;;
10383;SDS011;5238;43.508;4.980;2023-02-28T03:58:20;7.82;;;6.72;;
10383;SDS011;5238;43.508;4.980;2023-02-28T04:00:54;8.57;;;6.30;;
10383;SDS011;5238;43.508;4.980;2023-02-28T04:03:25;7.22;;;5.60;;
10383;SDS011;5238;43.508;4.980;2023-02-28T04:05:54;7.47;;;6.38;;
10383;SDS011;5238;43.508;4.980;2023-02-28T04:08:26;7.20;;;6.35;;
10383;SDS011;5238;43.508;4.980;2023-02-28T04:10:56;6.10;;;5.35;;
10383;SDS011;5238;43.508;4.980;2023-02-28T04:13:28;10.25;;;6.35;;
10383;SDS011;5238;43.508;4.980;2023-02-28T04:15:56;7.43;;;6.30;;
10383;SDS011;5238;43.508;4.980;2023-02-28T04:18:23;8.25;;;7.50;;
10383;SDS011;5238;43.508;4.980;2023-02-28T04:20:50;7.22;;;5.80;;
10383;SDS011;5238;43.508;4.980;2023-02-28T04:23:17;8.30;;;6.65;;
10383;SDS011;5238;43.508;4.980;2023-02-28T04:25:48;7.65;;;6.85;;
10383;SDS011;5238;43.508;4.980;2023-02-28T04:28:16;7.78;;;6.93;;
10383;SDS011;5238;43.508;4.980;2023-02-28T04:30:43;9.07;;;6.63;;
10383;SDS011;5238;43.508;4.980;2023-02-28T04:33:13;8.13;;;6.60;;
10383;SDS011;5238;43.508;4.980;2023-02-28T04:35:40;8.70;;;6.68;;
10383;SDS011;5238;43.508;4.980;2023-02-28T04:38:07;8.43;;;6.95;;
10383;SDS011;5238;43.508;4.980;2023-02-28T04:40:42;8.52;;;7.82;;
10383;SDS011;5238;43.508;4.980;2023-02-28T04:43:10;9.40;;;6.40;;
10383;SDS011;5238;43.508;4.980;2023-02-28T04:45:37;7.47;;;6.30;;
10383;SDS011;5238;43.508;4.980;2023-02-28T04:48:07;7.28;;;6.35;;
10383;SDS011;5238;43.508;4.980;2023-02-28T04:50:36;8.52;;;7.10;;
10383;SDS011;5238;43.508;4.980;2023-02-28T04:53:05;7.35;;;6.65;;
10383;SDS011;5238;43.508;4.980;2023-02-28T04:55:35;7.68;;;6.45;;
10383;SDS011;5238;43.508;4.980;2023-02-28T04:58:05;7.70;;;6.53;;
10383;SDS011;5238;43.508;4.980;2023-02-28T05:00:33;7.20;;;6.50;;
10383;SDS011;5238;43.508;4.980;2023-02-28T05:03:00;11.10;;;7.55;;
10383;SDS011;5238;43.508;4.980;2023-02-28T05:05:28;8.65;;;6.80;;
10383;SDS011;5238;43.508;4.980;2023-02-28T05:07:57;6.75;;;6.05;;
10383;SDS011;5238;43.508;4.980;2023-02-28T05:10:24;8.65;;;7.25;;
10383;SDS011;5238;43.508;4.980;2023-02-28T05:12:51;9.43;;;8.52;;
10383;SDS011;5238;43.508;4.980;2023-02-28T05:15:19;6.85;;;6.15;;
10383;SDS011;5238;43.508;4.980;2023-02-28T05:17:49;6.80;;;6.05;;
10383;SDS011;5238;43.508;4.980;2023-02-28T05:20:23;9.52;;;6.97;;
10383;SDS011;5238;43.508;4.980;2023-02-28T05:22:50;8.63;;;6.80;;
10383;SDS011;5238;43.508;4.980;2023-02-28T05:25:18;8.93;;;8.00;;
10383;SDS011;5238;43.508;4.980;2023-02-28T05:27:47;7.85;;;6.20;;
10383;SDS011;5238;43.508;4.980;2023-02-28T05:30:16;8.30;;;6.55;;
10383;SDS011;5238;43.508;4.980;2023-02-28T05:32:43;7.82;;;6.88;;
10383;SDS011;5238;43.508;4.980;2023-02-28T05:35:14;8.18;;;7.32;;
10383;SDS011;5238;43.508;4.980;2023-02-28T05:37:42;8.23;;;7.30;;
10383;SDS011;5238;43.508;4.980;2023-02-28T05:40:10;7.75;;;6.63;;
10383;SDS011;5238;43.508;4.980;2023-02-28T05:42:42;7.25;;;6.55;;
10383;SDS011;5238;43.508;4.980;2023-02-28T05:45:11;8.70;;;7.57;;
10383;SDS011;5238;43.508;4.980;2023-02-28T05:47:42;9.25;;;7.68;;
10383;SDS011;5238;43.508;4.980;2023-02-28T05:50:14;9.13;;;7.97;;
10383;SDS011;5238;43.508;4.980;2023-02-28T05:52:48;8.98;;;7.18;;
10383;SDS011;5238;43.508;4.980;2023-02-28T05:55:19;9.93;;;7.20;;
10383;SDS011;5238;43.508;4.980;2023-02-28T05:57:46;10.02;;;7.03;;
10383;SDS011;5238;43.508;4.980;2023-02-28T06:00:13;8.95;;;8.05;;
10383;SDS011;5238;43.508;4.980;2023-02-28T06:02:43;10.30;;;8.80;;
10383;SDS011;5238;43.508;4.980;2023-02-28T06:05:13;9.88;;;8.95;;
10383;SDS011;5238;43.508;4.980;2023-02-28T06:07:44;7.07;;;6.35;;
10383;SDS011;5238;43.508;4.980;2023-02-28T06:10:11;8.35;;;7.43;;
10383;SDS011;5238;43.508;4.980;2023-02-28T06:12:39;8.52;;;7.65;;
10383;SDS011;5238;43.508;4.980;2023-02-28T06:15:11;8.25;;;7.35;;
10383;SDS011;5238;43.508;4.980;2023-02-28T06:17:45;9.27;;;8.32;;
10383;SDS011;5238;43.508;4.980;2023-02-28T06:20:13;9.52;;;7.30;;
10383;SDS011;5238;43.508;4.980;2023-02-28T06:22:42;7.95;;;6.80;;
10383;SDS011;5238;43.508;4.980;2023-02-28T06:25:09;9.75;;;7.15;;
10383;SDS011;5238;43.508;4.980;2023-02-28T06:27:37;7.85;;;7.05;;
10383;SDS011;5238;43.508;4.980;2023-02-28T06:30:04;7.88;;;7.07;;
10383;SDS011;5238;43.508;4.980;2023-02-28T06:32:34;8.27;;;7.13;;
10383;SDS011;5238;43.508;4.980;2023-02-28T06:35:02;11.75;;;7.75;;
10383;SDS011;5238;43.508;4.980;2023-02-28T06:37:32;8.50;;;7.28;;
10383;SDS011;5238;43.508;4.980;2023-02-28T06:39:59;9.20;;;8.32;;
10383;SDS011;5238;43.508;4.980;2023-02-28T06:42:26;9.70;;;7.15;;
10383;SDS011;5238;43.508;4.980;2023-02-28T06:44:57;8.48;;;7.68;;
10383;SDS011;5238;43.508;4.980;2023-02-28T06:47:24;14.77;;;7.85;;
10383;SDS011;5238;43.508;4.980;2023-02-28T06:49:51;12.52;;;7.60;;
10383;SDS011;5238;43.508;4.980;2023-02-28T06:52:20;8.82;;;7.72;;
10383;SDS011;5238;43.508;4.980;2023-02-28T06:54:49;11.23;;;8.63;;
10383;SDS011;5238;43.508;4.980;2023-02-28T06:57:24;9.93;;;8.05;;
10383;SDS011;5238;43.508;4.980;2023-02-28T06:59:53;9.25;;;8.30;;
10383;SDS011;5238;43.508;4.980;2023-02-28T07:02:20;9.13;;;7.38;;
10383;SDS011;5238;43.508;4.980;2023-02-28T07:04:47;8.38;;;7.50;;
10383;SDS011;5238;43.508;4.980;2023-02-28T07:07:16;8.63;;;7.82;;
10383;SDS011;5238;43.508;4.980;2023-02-28T07:09:43;9.45;;;8.52;;
10383;SDS011;5238;43.508;4.980;2023-02-28T07:12:11;10.52;;;8.10;;
10383;SDS011;5238;43.508;4.980;2023-02-28T07:14:39;9.95;;;8.38;;
10383;SDS011;5238;43.508;4.980;2023-02-28T07:17:07;13.63;;;8.88;;
10383;SDS011;5238;43.508;4.980;2023-02-28T07:19:34;11.48;;;9.23;;
10383;SDS011;5238;43.508;4.980;2023-02-28T07:22:03;10.25;;;9.25;;
10383;SDS011;5238;43.508;4.980;2023-02-28T07:24:30;9.52;;;8.10;;
10383;SDS011;5238;43.508;4.980;2023-02-28T07:26:57;10.15;;;9.07;;
10383;SDS011;5238;43.508;4.980;2023-02-28T07:29:27;11.35;;;8.50;;
10383;SDS011;5238;43.508;4.980;2023-02-28T07:31:54;10.52;;;8.68;;
10383;SDS011;5238;43.508;4.980;2023-02-28T07:34:22;10.52;;;9.23;;
10383;SDS011;5238;43.508;4.980;2023-02-28T07:36:52;10.52;;;8.07;;
10383;SDS011;5238;43.508;4.980;2023-02-28T07:39:21;11.25;;;9.57;;
10383;SDS011;5238;43.508;4.980;2023-02-28T07:41:48;11.65;;;8.45;;
10383;SDS011;5238;43.508;4.980;2023-02-28T07:44:15;10.73;;;8.52;;
10383;SDS011;5238;43.508;4.980;2023-02-28T07:46:48;11.05;;;8.05;;
10383;SDS011;5238;43.508;4.980;2023-02-28T07:49:15;10.70;;;8.98;;
10383;SDS011;5238;43.508;4.980;2023-02-28T07:51:45;11.55;;;8.48;;
10383;SDS011;5238;43.508;4.980;2023-02-28T07:54:18;9.07;;;7.78;;
10383;SDS011;5238;43.508;4.980;2023-02-28T07:56:45;9.30;;;8.32;;
10383;SDS011;5238;43.508;4.980;2023-02-28T07:59:12;9.13;;;8.18;;
10383;SDS011;5238;43.508;4.980;2023-02-28T08:01:39;11.70;;;8.95;;
10383;SDS011;5238;43.508;4.980;2023-02-28T08:04:08;8.95;;;7.55;;
10383;SDS011;5238;43.508;4.980;2023-02-28T08:06:38;8.68;;;7.78;;
10383;SDS011;5238;43.508;4.980;2023-02-28T08:09:05;9.15;;;7.65;;
10383;SDS011;5238;43.508;4.980;2023-02-28T08:11:32;9.43;;;8.43;;
10383;SDS011;5238;43.508;4.980;2023-02-28T08:13:59;9.20;;;8.15;;
10383;SDS011;5238;43.508;4.980;2023-02-28T08:16:28;10.98;;;7.88;;
10383;SDS011;5238;43.508;4.980;2023-02-28T08:18:57;11.05;;;7.63;;
10383;SDS011;5238;43.508;4.980;2023-02-28T08:21:25;9.50;;;7.97;;
10383;SDS011;5238;43.508;4.980;2023-02-28T08:23:52;9.38;;;8.38;;
10383;SDS011;5238;43.508;4.980;2023-02-28T08:26:22;9.13;;;7.13;;
10383;SDS011;5238;43.508;4.980;2023-02-28T08:28:51;9.35;;;8.30;;
10383;SDS011;5238;43.508;4.980;2023-02-28T08:31:18;8.48;;;7.07;;
10383;SDS011;5238;43.508;4.980;2023-02-28T08:33:49;8.38;;;7.53;;
10383;SDS011;5238;43.508;4.980;2023-02-28T08:36:18;10.68;;;9.57;;
10383;SDS011;5238;43.508;4.980;2023-02-28T08:38:52;9.85;;;8.73;;
10383;SDS011;5238;43.508;4.980;2023-02-28T08:41:21;9.38;;;8.13;;
10383;SDS011;5238;43.508;4.980;2023-02-28T08:43:50;9.90;;;7.20;;
10383;SDS011;5238;43.508;4.980;2023-02-28T08:46:17;8.60;;;7.55;;
10383;SDS011;5238;43.508;4.980;2023-02-28T08:48:44;8.48;;;7.68;;
10383;SDS011;5238;43.508;4.980;2023-02-28T08:51:12;8.10;;;6.22;;
10383;SDS011;5238;43.508;4.980;2023-02-28T08:53:41;8.85;;;6.55;;
10383;SDS011;5238;43.508;4.980;2023-02-28T08:56:10;9.35;;;7.10;;
10383;SDS011;5238;43.508;4.980;2023-02-28T08:58:38;9.65;;;8.32;;
10383;SDS011;5238;43.508;4.980;2023-02-28T09:01:09;7.93;;;6.90;;
10383;SDS011;5238;43.508;4.980;2023-02-28T09:03:38;8.23;;;7.43;;
10383;SDS011;5238;43.508;4.980;2023-02-28T09:06:06;8.45;;;7.18;;
10383;SDS011;5238;43.508;4.980;2023-02-28T09:08:34;9.75;;;7.82;;
10383;SDS011;5238;43.508;4.980;2023-02-28T09:11:04;9.68;;;8.63;;
10383;SDS011;5238;43.508;4.980;2023-02-28T09:13:41;8.63;;;7.00;;
10383;SDS011;5238;43.508;4.980;2023-02-28T09:16:10;9.10;;;7.85;;
10383;SDS011;5238;43.508;4.980;2023-02-28T09:18:39;9.40;;;8.13;;
10383;SDS011;5238;43.508;4.980;2023-02-28T09:21:07;9.68;;;8.27;;
10383;SDS011;5238;43.508;4.980;2023-02-28T09:23:37;8.25;;;7.45;;
10383;SDS011;5238;43.508;4.980;2023-02-28T09:26:06;8.27;;;6.70;;
10383;SDS011;5238;43.508;4.980;2023-02-28T09:28:33;7.80;;;7.10;;
10383;SDS011;5238;43.508;4.980;2023-02-28T09:31:02;8.55;;;7.10;;
10383;SDS011;5238;43.508;4.980;2023-02-28T09:33:30;8.50;;;7.80;;
10383;SDS011;5238;43.508;4.980;2023-02-28T09:36:00;7.35;;;6.10;;
10383;SDS011;5238;43.508;4.980;2023-02-28T09:38:29;7.65;;;6.85;;
10383;SDS011;5238;43.508;4.980;2023-02-28T09:40:56;8.23;;;7.10;;
10383;SDS011;5238;43.508;4.980;2023-02-28T09:43:27;9.77;;;7.65;;
10383;SDS011;5238;43.508;4.980;2023-02-28T09:46:00;7.78;;;7.07;;
10383;SDS011;5238;43.508;4.980;2023-02-28T09:48:39;6.10;;;5.50;;
10383;SDS011;5238;43.508;4.980;2023-02-28T09:51:14;6.53;;;5.88;;
10383;SDS011;5238;43.508;4.980;2023-02-28T09:53:53;7.07;;;6.30;;
10383;SDS011;5238;43.508;4.980;2023-02-28T09:56:24;6.82;;;6.13;;
10383;SDS011;5238;43.508;4.980;2023-02-28T09:58:55;7.20;;;6.47;;
10383;SDS011;5238;43.508;4.980;2023-02-28T10:01:28;8.77;;;7.13;;
10383;SDS011;5238;43.508;4.980;2023-02-28T10:04:02;7.03;;;6.38;;
10383;SDS011;5238;43.508;4.980;2023-02-28T10:06:36;6.28;;;5.57;;
10383;SDS011;5238;43.508;4.980;2023-02-28T10:09:10;6.97;;;6.28;;
10383;SDS011;5238;43.508;4.980;2023-02-28T10:11:42;6.40;;;5.80;;
10383;SDS011;5238;43.508;4.980;2023-02-28T10:14:12;7.95;;;6.32;;
10383;SDS011;5238;43.508;4.980;2023-02-28T10:16:46;6.57;;;5.88;;
10383;SDS011;5238;43.508;4.980;2023-02-28T10:19:22;7.32;;;6.63;;
10383;SDS011;5238;43.508;4.980;2023-02-28T10:21:59;6.63;;;6.03;;
10383;SDS011;5238;43.508;4.980;2023-02-28T10:24:30;6.10;;;5.45;;
10383;SDS011;5238;43.508;4.980;2023-02-28T10:27:01;8.02;;;6.78;;
10383;SDS011;5238;43.508;4.980;2023-02-28T10:29:43;10.82;;;7.28;;
10383;SDS011;5238;43.508;4.980;2023-02-28T10:32:17;7.13;;;5.80;;
10383;SDS011;5238;43.508;4.980;2023-02-28T10:34:48;7.05;;;6.03;;
10383;SDS011;5238;43.508;4.980;2023-02-28T10:37:19;8.48;;;6.20;;
10383;SDS011;5238;43.508;4.980;2023-02-28T10:39:53;6.40;;;5.68;;
10383;SDS011;5238;43.508;4.980;2023-02-28T10:42:22;7.40;;;6.63;;
10383;SDS011;5238;43.508;4.980;2023-02-28T10:45:10;6.43;;;5.50;;
10383;SDS011;5238;43.508;4.980;2023-02-28T10:47:53;7.22;;;6.57;;
10383;SDS011;5238;43.508;4.980;2023-02-28T10:50:37;9.95;;;6.40;;
10383;SDS011;5238;43.508;4.980;2023-02-28T10:53:34;6.97;;;6.15;;
10383;SDS011;5238;43.508;4.980;2023-02-28T10:56:14;7.78;;;6.40;;
10383;SDS011;5238;43.508;4.980;2023-02-28T10:58:51;7.43;;;6.60;;
10383;SDS011;5238;43.508;4.980;2023-02-28T11:01:27;8.40;;;7.07;;
10383;SDS011;5238;43.508;4.980;2023-02-28T11:04:18;9.02;;;8.13;;
10383;SDS011;5238;43.508;4.980;2023-02-28T11:06:58;9.95;;;7.80;;
10383;SDS011;5238;43.508;4.980;2023-02-28T11:09:28;7.85;;;7.07;;
10383;SDS011;5238;43.508;4.980;2023-02-28T11:12:00;6.95;;;6.22;;
10383;SDS011;5238;43.508;4.980;2023-02-28T11:14:32;7.32;;;6.63;;
10383;SDS011;5238;43.508;4.980;2023-02-28T11:17:11;7.47;;;6.38;;
10383;SDS011;5238;43.508;4.980;2023-02-28T11:19:48;7.85;;;7.15;;
10383;SDS011;5238;43.508;4.980;2023-02-28T11:22:19;7.45;;;6.75;;
10383;SDS011;5238;43.508;4.980;2023-02-28T11:24:49;8.18;;;7.38;;
10383;SDS011;5238;43.508;4.980;2023-02-28T11:33:00;8.50;;;6.63;;
10383;SDS011;5238;43.508;4.980;2023-02-28T11:35:43;7.85;;;6.88;;
10383;SDS011;5238;43.508;4.980;2023-02-28T11:38:14;9.25;;;7.10;;
10383;SDS011;5238;43.508;4.980;2023-02-28T11:40:43;6.90;;;6.07;;
10383;SDS011;5238;43.508;4.980;2023-02-28T11:43:21;7.35;;;6.68;;
10383;SDS011;5238;43.508;4.980;2023-02-28T11:46:05;7.55;;;6.75;;
10383;SDS011;5238;43.508;4.980;2023-02-28T11:48:44;10.65;;;8.05;;
10383;SDS011;5238;43.508;4.980;2023-02-28T11:51:20;8.93;;;6.95;;
10383;SDS011;5238;43.508;4.980;2023-02-28T11:53:55;7.93;;;6.57;;
10383;SDS011;5238;43.508;4.980;2023-02-28T11:56:48;6.85;;;6.20;;
10383;SDS011;5238;43.508;4.980;2023-02-28T11:59:39;7.05;;;6.32;;
10383;SDS011;5238;43.508;4.980;2023-02-28T12:02:26;7.45;;;6.32;;
10383;SDS011;5238;43.508;4.980;2023-02-28T12:05:24;7.38;;;6.07;;
10383;SDS011;5238;43.508;4.980;2023-02-28T12:08:09;7.70;;;6.63;;
10383;SDS011;5238;43.508;4.980;2023-02-28T12:10:51;7.75;;;6.70;;
10383;SDS011;5238;43.508;4.980;2023-02-28T12:13:26;9.02;;;6.95;;
10383;SDS011;5238;43.508;4.980;2023-02-28T12:19:00;8.73;;;6.55;;
10383;SDS011;5238;43.508;4.980;2023-02-28T12:21:41;10.23;;;7.57;;
10383;SDS011;5238;43.508;4.980;2023-02-28T12:24:33;7.60;;;6.85;;
10383;SDS011;5238;43.508;4.980;2023-02-28T12:27:17;8.82;;;6.60;;
10383;SDS011;5238;43.508;4.980;2023-02-28T12:29:48;9.35;;;6.95;;
10383;SDS011;5238;43.508;4.980;2023-02-28T12:32:21;7.97;;;6.50;;
10383;SDS011;5238;43.508;4.980;2023-02-28T12:34:54;7.90;;;6.05;;
10383;SDS011;5238;43.508;4.980;2023-02-28T12:37:25;9.05;;;6.60;;
10383;SDS011;5238;43.508;4.980;2023-02-28T12:40:01;7.03;;;5.75;;
10383;SDS011;5238;43.508;4.980;2023-02-28T12:42:32;7.93;;;5.82;;
10383;SDS011;5238;43.508;4.980;2023-02-28T12:45:10;7.70;;;6.18;;
10383;SDS011;5238;43.508;4.980;2023-02-28T12:47:42;7.55;;;5.70;;
10383;SDS011;5238;43.508;4.980;2023-02-28T12:50:13;7.97;;;6.25;;
10383;SDS011;5238;43.508;4.980;2023-02-28T12:52:41;8.25;;;6.22;;
10383;SDS011;5238;43.508;4.980;2023-02-28T12:55:21;8.38;;;6.03;;
10383;SDS011;5238;43.508;4.980;2023-02-28T12:57:57;9.68;;;6.22;;
10383;SDS011;5238;43.508;4.980;2023-02-28T13:00:33;10.32;;;6.93;;
10383;SDS011;5238;43.508;4.980;2023-02-28T13:06:00;7.88;;;7.00;;
10383;SDS011;5238;43.508;4.980;2023-02-28T13:11:29;7.70;;;6.55;;
10383;SDS011;5238;43.508;4.980;2023-02-28T13:13:58;10.70;;;6.22;;
10383;SDS011;5238;43.508;4.980;2023-02-28T13:19:23;7.13;;;5.82;;
10383;SDS011;5238;43.508;4.980;2023-02-28T13:21:52;7.45;;;5.88;;
10383;SDS011;5238;43.508;4.980;2023-02-28T13:24:37;6.05;;;5.32;;
10383;SDS011;5238;43.508;4.980;2023-02-28T13:27:17;5.43;;;4.88;;
10383;SDS011;5238;43.508;4.980;2023-02-28T13:33:23;5.75;;;5.15;;
10383;SDS011;5238;43.508;4.980;2023-02-28T13:38:54;9.77;;;6.97;;
10383;SDS011;5238;43.508;4.980;2023-02-28T13:41:41;9.50;;;6.50;;
10383;SDS011;5238;43.508;4.980;2023-02-28T13:44:15;7.13;;;6.28;;
10383;SDS011;5238;43.508;4.980;2023-02-28T13:49:51;9.88;;;6.55;;
10383;SDS011;5238;43.508;4.980;2023-02-28T13:52:21;7.43;;;5.80;;
10383;SDS011;5238;43.508;4.980;2023-02-28T13:54:52;6.97;;;5.63;;
10383;SDS011;5238;43.508;4.980;2023-02-28T13:57:35;6.53;;;5.82;;
10383;SDS011;5238;43.508;4.980;2023-02-28T14:00:21;7.88;;;5.97;;
10383;SDS011;5238;43.508;4.980;2023-02-28T14:03:05;10.52;;;6.38;;
10383;SDS011;5238;43.508;4.980;2023-02-28T14:06:15;6.78;;;5.70;;
10383;SDS011;5238;43.508;4.980;2023-02-28T14:09:16;7.65;;;5.95;;
10383;SDS011;5238;43.508;4.980;2023-02-28T14:18:27;6.55;;;5.82;;
10383;SDS011;5238;43.508;4.980;2023-02-28T14:33:00;8.02;;;6.28;;
10383;SDS011;5238;43.508;4.980;2023-02-28T14:35:45;6.53;;;5.63;;
10383;SDS011;5238;43.508;4.980;2023-02-28T14:38:27;6.65;;;5.35;;
10383;SDS011;5238;43.508;4.980;2023-02-28T14:40:58;8.43;;;5.28;;
10383;SDS011;5238;43.508;4.980;2023-02-28T14:43:29;7.95;;;5.78;;
10383;SDS011;5238;43.508;4.980;2023-02-28T14:45:56;9.27;;;6.63;;
10383;SDS011;5238;43.508;4.980;2023-02-28T14:48:27;7.53;;;5.30;;
10383;SDS011;5238;43.508;4.980;2023-02-28T14:50:55;7.15;;;6.05;;
10383;SDS011;5238;43.508;4.980;2023-02-28T14:53:26;8.30;;;6.47;;
10383;SDS011;5238;43.508;4.980;2023-02-28T14:55:55;6.90;;;6.22;;
10383;SDS011;5238;43.508;4.980;2023-02-28T14:58:26;8.15;;;6.28;;
10383;SDS011;5238;43.508;4.980;2023-02-28T15:00:56;8.57;;;7.00;;
10383;SDS011;5238;43.508;4.980;2023-02-28T15:03:28;9.00;;;6.45;;
10383;SDS011;5238;43.508;4.980;2023-02-28T15:06:03;8.20;;;6.78;;
10383;SDS011;5238;43.508;4.980;2023-02-28T15:08:38;6.13;;;5.57;;
10383;SDS011;5238;43.508;4.980;2023-02-28T15:11:13;9.77;;;6.20;;
10383;SDS011;5238;43.508;4.980;2023-02-28T15:13:44;8.13;;;6.38;;
10383;SDS011;5238;43.508;4.980;2023-02-28T15:16:19;6.82;;;6.13;;
10383;SDS011;5238;43.508;4.980;2023-02-28T15:18:50;7.45;;;6.47;;
10383;SDS011;5238;43.508;4.980;2023-02-28T15:21:25;9.32;;;7.00;;
10383;SDS011;5238;43.508;4.980;2023-02-28T15:23:56;10.63;;;7.25;;
10383;SDS011;5238;43.508;4.980;2023-02-28T15:26:29;9.70;;;8.13;;
10383;SDS011;5238;43.508;4.980;2023-02-28T15:28:59;7.88;;;6.95;;
10383;SDS011;5238;43.508;4.980;2023-02-28T15:31:29;9.25;;;7.28;;
10383;SDS011;5238;43.508;4.980;2023-02-28T15:34:03;8.55;;;7.20;;
10383;SDS011;5238;43.508;4.980;2023-02-28T15:36:34;8.57;;;6.72;;
10383;SDS011;5238;43.508;4.980;2023-02-28T15:39:02;8.45;;;7.00;;
10383;SDS011;5238;43.508;4.980;2023-02-28T15:41:44;7.68;;;6.78;;
10383;SDS011;5238;43.508;4.980;2023-02-28T15:44:16;8.40;;;6.90;;
10383;SDS011;5238;43.508;4.980;2023-02-28T15:47:17;8.75;;;6.35;;
10383;SDS011;5238;43.508;4.980;2023-02-28T15:49:49;11.50;;;7.20;;
10383;SDS011;5238;43.508;4.980;2023-02-28T15:52:19;8.98;;;6.90;;
10383;SDS011;5238;43.508;4.980;2023-02-28T15:54:54;8.18;;;6.40;;
10383;SDS011;5238;43.508;4.980;2023-02-28T15:57:23;13.73;;;8.70;;
10383;SDS011;5238;43.508;4.980;2023-02-28T15:59:52;9.50;;;6.95;;
10383;SDS011;5238;43.508;4.980;2023-02-28T16:02:23;7.72;;;6.75;;
10383;SDS011;5238;43.508;4.980;2023-02-28T16:05:00;10.02;;;6.82;;
10383;SDS011;5238;43.508;4.980;2023-02-28T16:08:00;9.13;;;6.63;;
10383;SDS011;5238;43.508;4.980;2023-02-28T16:10:28;8.95;;;6.78;;
10383;SDS011;5238;43.508;4.980;2023-02-28T16:12:56;7.53;;;6.60;;
10383;SDS011;5238;43.508;4.980;2023-02-28T16:15:25;8.90;;;6.35;;
10383;SDS011;5238;43.508;4.980;2023-02-28T16:17:55;9.73;;;7.00;;
10383;SDS011;5238;43.508;4.980;2023-02-28T16:20:26;8.88;;;6.97;;
10383;SDS011;5238;43.508;4.980;2023-02-28T16:22:54;9.85;;;6.68;;
10383;SDS011;5238;43.508;4.980;2023-02-28T16:25:23;9.88;;;7.68;;
10383;SDS011;5238;43.508;4.980;2023-02-28T16:27:53;8.23;;;6.80;;